Terminal Aerodrome Forecast
Issued by NWS

Home | Current Version | Previous Version | Text Only | Print | Product List | Glossary On
Versions: 1 2 3 4 5 6 7 8 9 10 11 12 13
000
FTUS45 KABQ 311127
TAFGUP
TAF
KGUP 311127Z 3112/0112 05006KT P6SM BKN040 BKN080
     FM311600 VRB06KT P6SM SCT070 BKN120
     FM312100 23007KT P6SM VCTS SCT080CB BKN120
     FM010200 13007KT P6SM VCSH SCT070 BKN100
     FM010700 VRB06KT P6SM SCT040 BKN100=

USA.gov is the U.S. government's official web portal to all federal, state and local government web resources and services.